Time;durP1;ratioP1;P1;durP2;ratioP2;P2;SDS_P1;SDS_P2;PMS_P1;PMS_P2;Temp;Humidity;BMP_temperature;BMP_pressure;BME280_temperature;BME280_humidity;BME280_pressure;Samples;Min_cycle;Max_cycle;Signal;HPM_P1;HPM_P2
2023/06/04 00:02:15;;;;;;;;;;;;;;;14.43;45.75488;102422.3;;;;-71
2023/06/04 00:04:57;;;;;;;0.2;0.1;;;;;;;;;;;;;-69
2023/06/04 00:07:14;;;;;;;;;;;;;;;14.38;45.85156;102416.2;;;;-68
2023/06/04 00:12:14;;;;;;;;;;;;;;;14.25;45.98535;102414.7;;;;-68
2023/06/04 00:17:14;;;;;;;;;;;;;;;14.22;45.83496;102413.6;;;;-69
2023/06/04 00:22:14;;;;;;;;;;;;;;;14.2;46.15918;102412.8;;;;-68
2023/06/04 00:27:14;;;;;;;;;;;;;;;14.09;46.30566;102411.5;;;;-70
2023/06/04 00:32:14;;;;;;;;;;;;;;;14.04;46.42383;102412.9;;;;-68
2023/06/04 00:34:59;;;;;;;0.2;0.1;;;;;;;;;;;;;-69
2023/06/04 00:37:14;;;;;;;;;;;;;;;14.03;46.33203;102416.1;;;;-69
2023/06/04 00:42:14;;;;;;;;;;;;;;;13.97;46.54004;102412;;;;-70
2023/06/04 00:47:14;;;;;;;;;;;;;;;13.92;46.55859;102414.1;;;;-69
2023/06/04 00:52:14;;;;;;;;;;;;;;;13.86;46.91309;102416.9;;;;-69
2023/06/04 00:57:14;;;;;;;;;;;;;;;13.83;47.07813;102415.8;;;;-69
2023/06/04 01:02:16;;;;;;;;;;;;;;;13.77;46.84668;102419.7;;;;-69
2023/06/04 01:05:07;;;;;;;0.3;0.1;;;;;;;;;;;;;-69
2023/06/04 01:07:15;;;;;;;;;;;;;;;13.71;47.04199;102420.9;;;;-71
2023/06/04 01:12:14;;;;;;;;;;;;;;;13.69;46.77051;102421.1;;;;-69
2023/06/04 01:17:17;;;;;;;;;;;;;;;13.6;47.21094;102416.7;;;;-69
2023/06/04 01:22:16;;;;;;;;;;;;;;;13.57;47.02832;102416.8;;;;-69
2023/06/04 01:27:15;;;;;;;;;;;;;;;13.57;46.91504;102416.9;;;;-70
2023/06/04 01:32:14;;;;;;;;;;;;;;;13.48;47.5459;102419.5;;;;-68
2023/06/04 01:35:01;;;;;;;0.2;0.1;;;;;;;;;;;;;-69
2023/06/04 01:37:16;;;;;;;;;;;;;;;13.4;47.61621;102421.1;;;;-69
2023/06/04 01:42:14;;;;;;;;;;;;;;;13.37;47.41113;102421.4;;;;-71
2023/06/04 01:47:14;;;;;;;;;;;;;;;13.35;47.7793;102414.7;;;;-70
2023/06/04 01:52:16;;;;;;;;;;;;;;;13.32;47.75391;102417.3;;;;-68
2023/06/04 01:57:14;;;;;;;;;;;;;;;13.27;47.65918;102416.8;;;;-69
2023/06/04 02:02:14;;;;;;;;;;;;;;;13.24;47.90234;102417.5;;;;-69
2023/06/04 02:05:03;;;;;;;0.2;0.1;;;;;;;;;;;;;-69
2023/06/04 02:07:17;;;;;;;;;;;;;;;13.21;48.32617;102419.4;;;;-71
2023/06/04 02:12:16;;;;;;;;;;;;;;;13.2;47.96582;102416.1;;;;-70
2023/06/04 02:17:15;;;;;;;;;;;;;;;13.12;48.22656;102419.3;;;;-69
2023/06/04 02:22:14;;;;;;;;;;;;;;;13.08;48.35645;102414.9;;;;-69
2023/06/04 02:27:15;;;;;;;;;;;;;;;13.06;48.52344;102417.4;;;;-70
2023/06/04 02:32:14;;;;;;;;;;;;;;;13.01;49.30371;102417.3;;;;-69
2023/06/04 02:35:04;;;;;;;0.2;0.1;;;;;;;;;;;;;-68
2023/06/04 02:37:14;;;;;;;;;;;;;;;12.99;48.74023;102418.8;;;;-69
2023/06/04 02:42:14;;;;;;;;;;;;;;;12.94;48.93652;102417.6;;;;-71
2023/06/04 02:47:14;;;;;;;;;;;;;;;12.93;49.07031;102418.2;;;;-71
2023/06/04 02:52:14;;;;;;;;;;;;;;;12.89;49.17773;102420.9;;;;-70
2023/06/04 02:57:14;;;;;;;;;;;;;;;12.86;49.39844;102416.2;;;;-68
2023/06/04 03:02:14;;;;;;;;;;;;;;;12.86;49.46582;102412.6;;;;-69
2023/06/04 03:05:05;;;;;;;0.2;0.1;;;;;;;;;;;;;-70
2023/06/04 03:07:15;;;;;;;;;;;;;;;12.84;49.41895;102410;;;;-69
2023/06/04 03:12:14;;;;;;;;;;;;;;;12.78;49.35645;102407.9;;;;-69
2023/06/04 03:17:14;;;;;;;;;;;;;;;12.72;49.83301;102410.1;;;;-68
2023/06/04 03:22:14;;;;;;;;;;;;;;;12.71;49.80957;102407.8;;;;-69
2023/06/04 03:27:14;;;;;;;;;;;;;;;12.69;50.08594;102409.1;;;;-69
2023/06/04 03:32:15;;;;;;;;;;;;;;;12.64;50.40723;102408.8;;;;-68
2023/06/04 03:35:07;;;;;;;0.2;0.1;;;;;;;;;;;;;-69
2023/06/04 03:37:14;;;;;;;;;;;;;;;12.63;50.43848;102410.1;;;;-70
2023/06/04 03:42:14;;;;;;;;;;;;;;;12.6;50.29004;102406.5;;;;-70
2023/06/04 03:47:14;;;;;;;;;;;;;;;12.59;50.56934;102407.1;;;;-68
2023/06/04 03:52:14;;;;;;;;;;;;;;;12.61;50.19043;102408.6;;;;-70
2023/06/04 03:57:14;;;;;;;;;;;;;;;12.56;50.62109;102413;;;;-70
2023/06/04 04:02:14;;;;;;;;;;;;;;;12.58;50.77051;102415;;;;-70
2023/06/04 04:05:09;;;;;;;0.2;0.1;;;;;;;;;;;;;-69
2023/06/04 04:07:15;;;;;;;;;;;;;;;12.57;50.90332;102414.6;;;;-70
2023/06/04 04:12:14;;;;;;;;;;;;;;;12.57;51.0498;102407.5;;;;-69
2023/06/04 04:17:14;;;;;;;;;;;;;;;12.59;50.89453;102408.4;;;;-69
2023/06/04 04:22:17;;;;;;;;;;;;;;;12.58;51.52148;102411.8;;;;-69
2023/06/04 04:27:15;;;;;;;;;;;;;;;12.63;51.68359;102409.7;;;;-70
2023/06/04 04:32:16;;;;;;;;;;;;;;;12.65;51.54004;102412.6;;;;-68
2023/06/04 04:35:11;;;;;;;0.2;0.1;;;;;;;;;;;;;-69
2023/06/04 04:37:14;;;;;;;;;;;;;;;12.68;51.9248;102420.2;;;;-69
2023/06/04 04:42:14;;;;;;;;;;;;;;;12.72;52.06445;102417.9;;;;-71
2023/06/04 04:47:14;;;;;;;;;;;;;;;12.75;52.4043;102413.3;;;;-68
2023/06/04 04:52:14;;;;;;;;;;;;;;;12.8;52.89258;102410;;;;-69
2023/06/04 04:57:14;;;;;;;;;;;;;;;12.85;52.90918;102414.5;;;;-68
2023/06/04 05:02:14;;;;;;;;;;;;;;;12.92;53.09766;102411.5;;;;-70
2023/06/04 05:05:11;;;;;;;0.2;0.1;;;;;;;;;;;;;-69
2023/06/04 05:07:14;;;;;;;;;;;;;;;12.99;53.06055;102411.7;;;;-69
2023/06/04 05:12:14;;;;;;;;;;;;;;;13.06;53.29395;102418.7;;;;-70
2023/06/04 05:17:16;;;;;;;;;;;;;;;13.18;53.87012;102424.2;;;;-70
2023/06/04 05:22:16;;;;;;;;;;;;;;;13.39;54.06348;102419.4;;;;-70
2023/06/04 05:27:14;;;;;;;;;;;;;;;13.93;53.26563;102420.7;;;;-70
2023/06/04 05:32:15;;;;;;;;;;;;;;;14.6;52.88574;102421.5;;;;-69
2023/06/04 05:35:12;;;;;;;0.2;0.1;;;;;;;;;;;;;-68
2023/06/04 05:37:16;;;;;;;;;;;;;;;15.21;52.03418;102422.3;;;;-69
2023/06/04 05:42:15;;;;;;;;;;;;;;;15.68;51.97559;102421.3;;;;-67
2023/06/04 05:47:14;;;;;;;;;;;;;;;16.25;50.87891;102424;;;;-69
2023/06/04 05:52:14;;;;;;;;;;;;;;;16.67;50.48535;102420;;;;-69
2023/06/04 05:57:14;;;;;;;;;;;;;;;17.01;50.12793;102430.4;;;;-69
2023/06/04 06:02:14;;;;;;;;;;;;;;;17.39;49.81934;102430.1;;;;-69
2023/06/04 06:05:14;;;;;;;0.2;0.1;;;;;;;;;;;;;-69
2023/06/04 06:07:14;;;;;;;;;;;;;;;17.89;48.86523;102437.9;;;;-71
2023/06/04 06:12:14;;;;;;;;;;;;;;;18.2;48.57031;102438;;;;-70
2023/06/04 06:17:14;;;;;;;;;;;;;;;18.63;47.87695;102442.7;;;;-70
2023/06/04 06:22:14;;;;;;;;;;;;;;;19.03;47.20215;102449.8;;;;-69
2023/06/04 06:27:15;;;;;;;;;;;;;;;19.4;47.31055;102444.2;;;;-69
2023/06/04 06:32:14;;;;;;;;;;;;;;;19.79;46.77051;102446.7;;;;-69
2023/06/04 06:35:16;;;;;;;1.4;0.2;;;;;;;;;;;;;-70
2023/06/04 06:37:13;;;;;;;;;;;;;;;20.03;46.04102;102444.6;;;;-69
2023/06/04 06:42:16;;;;;;;;;;;;;;;20.19;46.70898;102449.5;;;;-69
2023/06/04 06:47:14;;;;;;;;;;;;;;;20.49;45.88379;102446;;;;-70
2023/06/04 06:52:14;;;;;;;;;;;;;;;20.69;45.48047;102448.3;;;;-69
2023/06/04 06:57:14;;;;;;;;;;;;;;;20.85;45.37109;102445.6;;;;-70
2023/06/04 07:02:14;;;;;;;;;;;;;;;21.1;45.27051;102451.1;;;;-70
2023/06/04 07:05:18;;;;;;;0.2;0.1;;;;;;;;;;;;;-69
2023/06/04 07:07:14;;;;;;;;;;;;;;;21.5;44.17676;102448.9;;;;-69
2023/06/04 07:12:13;;;;;;;;;;;;;;;21.75;43.63867;102453.7;;;;-71
2023/06/04 07:17:14;;;;;;;;;;;;;;;21.87;43.50098;102453.5;;;;-69
2023/06/04 07:22:15;;;;;;;;;;;;;;;22.12;43.16895;102455.3;;;;-70
2023/06/04 07:27:18;;;;;;;;;;;;;;;22.32;42.74121;102451.7;;;;-67
2023/06/04 07:32:14;;;;;;;;;;;;;;;22.31;43.39453;102456.4;;;;-69
2023/06/04 07:35:21;;;;;;;0.2;0;;;;;;;;;;;;;-69
2023/06/04 07:37:15;;;;;;;;;;;;;;;22.62;42.53906;102454;;;;-70
2023/06/04 07:42:14;;;;;;;;;;;;;;;22.74;42.18262;102454.9;;;;-70
2023/06/04 07:47:14;;;;;;;;;;;;;;;22.9;41.94531;102461.8;;;;-71
2023/06/04 07:52:14;;;;;;;;;;;;;;;22.9;41.91016;102461.9;;;;-69
2023/06/04 07:57:14;;;;;;;;;;;;;;;23.14;41.49512;102465.3;;;;-69
2023/06/04 08:02:14;;;;;;;;;;;;;;;23.25;41.30957;102457.9;;;;-70
2023/06/04 08:05:24;;;;;;;0.2;0.1;;;;;;;;;;;;;-70
2023/06/04 08:07:14;;;;;;;;;;;;;;;23.42;41.12793;102462.1;;;;-69
2023/06/04 08:12:15;;;;;;;;;;;;;;;23.62;40.78906;102460.8;;;;-70
2023/06/04 08:17:14;;;;;;;;;;;;;;;23.76;40.62891;102463.3;;;;-70
2023/06/04 08:22:14;;;;;;;;;;;;;;;23.92;40.55078;102463.5;;;;-69
2023/06/04 08:27:14;;;;;;;;;;;;;;;24.07;40.33398;102469.5;;;;-69
2023/06/04 08:32:14;;;;;;;;;;;;;;;24.34;40.20898;102470.8;;;;-70
2023/06/04 08:35:27;;;;;;;0.2;0;;;;;;;;;;;;;-71
2023/06/04 08:37:14;;;;;;;;;;;;;;;24.42;39.99512;102465.6;;;;-70
2023/06/04 08:42:20;;;;;;;;;;;;;;;24.54;39.70508;102465.7;;;;-72
2023/06/04 08:47:17;;;;;;;;;;;;;;;24.72;39.56055;102463.7;;;;-70
2023/06/04 08:52:14;;;;;;;;;;;;;;;24.9;39.21777;102469.9;;;;-71
2023/06/04 08:57:15;;;;;;;;;;;;;;;25.17;38.99805;102475.5;;;;-72
2023/06/04 09:02:15;;;;;;;;;;;;;;;25.33;38.66406;102473.3;;;;-72
2023/06/04 09:05:32;;;;;;;0.2;0;;;;;;;;;;;;;-67
2023/06/04 09:07:15;;;;;;;;;;;;;;;25.42;38.27832;102478.5;;;;-67
2023/06/04 09:12:19;;;;;;;;;;;;;;;25.57;38.16406;102474.3;;;;-68
2023/06/04 09:17:15;;;;;;;;;;;;;;;25.69;37.66309;102472.5;;;;-69
2023/06/04 09:22:14;;;;;;;;;;;;;;;25.95;37.53418;102476.4;;;;-69
2023/06/04 09:27:17;;;;;;;;;;;;;;;26.19;37.27539;102475.8;;;;-69
2023/06/04 09:32:15;;;;;;;;;;;;;;;26.42;36.70117;102477.1;;;;-71
2023/06/04 09:35:35;;;;;;;0.3;0.2;;;;;;;;;;;;;-69
2023/06/04 09:37:18;;;;;;;;;;;;;;;26.57;36.31934;102481.4;;;;-69
2023/06/04 09:42:14;;;;;;;;;;;;;;;26.66;36.44238;102481.9;;;;-68
2023/06/04 09:47:14;;;;;;;;;;;;;;;26.83;36.29395;102481;;;;-67
2023/06/04 09:52:14;;;;;;;;;;;;;;;26.95;35.7334;102492.8;;;;-69
2023/06/04 09:57:18;;;;;;;;;;;;;;;27.14;35.88672;102490.9;;;;-67
2023/06/04 10:02:15;;;;;;;;;;;;;;;27.29;35.41016;102483.8;;;;-66
2023/06/04 10:05:39;;;;;;;0.2;0;;;;;;;;;;;;;-67
2023/06/04 10:07:15;;;;;;;;;;;;;;;27.5;35.04199;102489;;;;-67
2023/06/04 10:12:17;;;;;;;;;;;;;;;27.56;35.30371;102492.6;;;;-67
2023/06/04 10:17:15;;;;;;;;;;;;;;;27.81;35.1709;102494.6;;;;-67
2023/06/04 10:22:14;;;;;;;;;;;;;;;28.04;34.16211;102491.8;;;;-66
2023/06/04 10:27:15;;;;;;;;;;;;;;;28.06;34.89941;102494.5;;;;-68
2023/06/04 10:32:14;;;;;;;;;;;;;;;28.18;34.66309;102495;;;;-67
2023/06/04 10:35:44;;;;;;;0.3;0.1;;;;;;;;;;;;;-68
2023/06/04 10:37:22;;;;;;;;;;;;;;;28.28;34.62402;102494.4;;;;-67
2023/06/04 10:42:16;;;;;;;;;;;;;;;28.47;33.73926;102498.3;;;;-73
2023/06/04 10:47:21;;;;;;;;;;;;;;;28.66;34.06836;102487.9;;;;-72
2023/06/04 10:52:17;;;;;;;;;;;;;;;28.79;33.85645;102495.4;;;;-73
2023/06/04 10:57:18;;;;;;;;;;;;;;;28.89;34.05176;102488.3;;;;-72
2023/06/04 11:02:15;;;;;;;;;;;;;;;29;33.93066;102488;;;;-72
2023/06/04 11:05:50;;;;;;;0.1;0;;;;;;;;;;;;;-72
2023/06/04 11:07:14;;;;;;;;;;;;;;;29.14;34.92383;102486.2;;;;-72
2023/06/04 11:12:14;;;;;;;;;;;;;;;29.28;34.17383;102486.1;;;;-67
2023/06/04 11:17:18;;;;;;;;;;;;;;;29.5;34.19043;102489.2;;;;-68
2023/06/04 11:22:14;;;;;;;;;;;;;;;29.65;34.21387;102485.6;;;;-67
2023/06/04 11:27:13;;;;;;;;;;;;;;;29.77;33.82422;102476.3;;;;-67
2023/06/04 11:32:24;;;;;;;;;;;;;;;29.98;34.47266;102475.3;;;;-67
2023/06/04 11:35:53;;;;;;;0.1;0;;;;;;;;;;;;;-67
2023/06/04 11:37:16;;;;;;;;;;;;;;;30.28;33.20605;102480.3;;;;-68
2023/06/04 11:42:14;;;;;;;;;;;;;;;30.21;33.74023;102473;;;;-68
2023/06/04 11:47:14;;;;;;;;;;;;;;;30.35;33.29297;102476.1;;;;-68
2023/06/04 11:52:15;;;;;;;;;;;;;;;30.47;32.02246;102465.4;;;;-69
2023/06/04 11:57:14;;;;;;;;;;;;;;;30.46;33.00684;102467.5;;;;-68
2023/06/04 12:02:14;;;;;;;;;;;;;;;30.52;31.20313;102468;;;;-68
2023/06/04 12:05:58;;;;;;;0.2;0;;;;;;;;;;;;;-67
2023/06/04 12:07:13;;;;;;;;;;;;;;;30.64;32.87988;102459.9;;;;-66
2023/06/04 12:12:15;;;;;;;;;;;;;;;30.79;31.32813;102461.2;;;;-67
2023/06/04 12:17:14;;;;;;;;;;;;;;;30.83;31.51855;102461.2;;;;-68
2023/06/04 12:22:14;;;;;;;;;;;;;;;30.94;32.4668;102455.1;;;;-67
2023/06/04 12:27:14;;;;;;;;;;;;;;;30.95;32.50293;102447.1;;;;-73
2023/06/04 12:32:15;;;;;;;;;;;;;;;31.02;32.40137;102457.8;;;;-68
2023/06/04 12:36:05;;;;;;;0.2;0.1;;;;;;;;;;;;;-68
2023/06/04 12:37:14;;;;;;;;;;;;;;;31.08;31.3252;102452.9;;;;-67
2023/06/04 12:42:14;;;;;;;;;;;;;;;31.24;31.40625;102454.4;;;;-68
2023/06/04 12:47:14;;;;;;;;;;;;;;;31.28;31.39648;102457.8;;;;-67
2023/06/04 12:52:14;;;;;;;;;;;;;;;31.29;32.77344;102459.6;;;;-68
2023/06/04 12:57:14;;;;;;;;;;;;;;;31.45;31.49121;102454.1;;;;-68
2023/06/04 13:02:13;;;;;;;;;;;;;;;31.39;30.29785;102456.2;;;;-67
2023/06/04 13:06:09;;;;;;;0.2;0;;;;;;;;;;;;;-66
2023/06/04 13:07:14;;;;;;;;;;;;;;;31.42;31.52441;102457.3;;;;-68
2023/06/04 13:12:14;;;;;;;;;;;;;;;31.44;31.60742;102453.9;;;;-66
2023/06/04 13:17:13;;;;;;;;;;;;;;;31.44;31.38379;102454.6;;;;-68
2023/06/04 13:22:13;;;;;;;;;;;;;;;31.52;30.58887;102453.3;;;;-68
2023/06/04 13:27:13;;;;;;;;;;;;;;;31.51;30.85938;102447.9;;;;-67
2023/06/04 13:32:14;;;;;;;;;;;;;;;31.61;30.84277;102447.9;;;;-68
2023/06/04 13:36:14;;;;;;;0.1;0;;;;;;;;;;;;;-67
2023/06/04 13:37:14;;;;;;;;;;;;;;;31.61;30.85449;102451.9;;;;-67
2023/06/04 13:42:14;;;;;;;;;;;;;;;31.66;31.07031;102453.5;;;;-67
2023/06/04 13:47:14;;;;;;;;;;;;;;;31.6;30.59473;102448.1;;;;-66
2023/06/04 13:52:14;;;;;;;;;;;;;;;31.61;30.07715;102446.1;;;;-67
2023/06/04 13:57:14;;;;;;;;;;;;;;;31.64;30.32617;102448.5;;;;-67
2023/06/04 14:02:14;;;;;;;;;;;;;;;31.76;31.01758;102440.3;;;;-67
2023/06/04 14:06:20;;;;;;;0.1;0;;;;;;;;;;;;;-66
2023/06/04 14:07:13;;;;;;;;;;;;;;;31.73;31.09863;102440.1;;;;-67
2023/06/04 14:12:17;;;;;;;;;;;;;;;31.67;30.54102;102433.2;;;;-66
2023/06/04 14:17:14;;;;;;;;;;;;;;;31.64;30.71484;102430.4;;;;-66
2023/06/04 14:22:14;;;;;;;;;;;;;;;31.64;30.5498;102439.6;;;;-67
2023/06/04 14:27:14;;;;;;;;;;;;;;;31.51;30.45996;102426.1;;;;-66
2023/06/04 14:32:14;;;;;;;;;;;;;;;31.39;30.81641;102423.3;;;;-68
2023/06/04 14:36:25;;;;;;;0.2;0;;;;;;;;;;;;;-69
2023/06/04 14:37:14;;;;;;;;;;;;;;;31.25;29.50098;102423.1;;;;-67
2023/06/04 14:42:13;;;;;;;;;;;;;;;31.21;30.69824;102425.6;;;;-66
2023/06/04 14:47:14;;;;;;;;;;;;;;;31.12;30.51563;102419;;;;-67
2023/06/04 14:52:14;;;;;;;;;;;;;;;31;30.79004;102419.2;;;;-67
2023/06/04 14:57:14;;;;;;;;;;;;;;;30.88;31.19336;102417.7;;;;-67
2023/06/04 15:02:19;;;;;;;;;;;;;;;30.77;31.66699;102420.1;;;;-67
2023/06/04 15:06:31;;;;;;;0.2;0;;;;;;;;;;;;;-68
2023/06/04 15:07:14;;;;;;;;;;;;;;;30.83;31.17773;102421.9;;;;-68
2023/06/04 15:12:15;;;;;;;;;;;;;;;30.63;30.98828;102418;;;;-67
2023/06/04 15:17:14;;;;;;;;;;;;;;;30.43;31.40918;102410.4;;;;-67
2023/06/04 15:22:14;;;;;;;;;;;;;;;30.18;31.06348;102411.1;;;;-66
2023/06/04 15:27:13;;;;;;;;;;;;;;;30.04;31.5459;102407.4;;;;-68
2023/06/04 15:32:14;;;;;;;;;;;;;;;29.93;31.86719;102410.5;;;;-68
2023/06/04 15:36:37;;;;;;;0.2;0;;;;;;;;;;;;;-68
2023/06/04 15:37:14;;;;;;;;;;;;;;;29.77;31.89063;102411.1;;;;-67
2023/06/04 15:42:14;;;;;;;;;;;;;;;29.59;31.9248;102413.7;;;;-67
2023/06/04 15:47:14;;;;;;;;;;;;;;;29.44;32.20703;102410.3;;;;-68
2023/06/04 15:52:13;;;;;;;;;;;;;;;29.35;32.61035;102416.5;;;;-66
2023/06/04 15:57:14;;;;;;;;;;;;;;;29.12;32.54785;102423.2;;;;-65
2023/06/04 16:02:14;;;;;;;;;;;;;;;28.91;32.95313;102420;;;;-70
2023/06/04 16:06:42;;;;;;;0.1;0;;;;;;;;;;;;;-67
2023/06/04 16:07:14;;;;;;;;;;;;;;;28.7;33.18359;102417.7;;;;-67
2023/06/04 16:12:14;;;;;;;;;;;;;;;28.46;32.83887;102406.5;;;;-67
2023/06/04 16:17:13;;;;;;;;;;;;;;;28.28;33.39746;102400;;;;-66
2023/06/04 16:22:13;;;;;;;;;;;;;;;28;33.5752;102395.2;;;;-68
2023/06/04 16:27:14;;;;;;;;;;;;;;;27.81;34.08594;102394.3;;;;-68
2023/06/04 16:32:13;;;;;;;;;;;;;;;27.64;34.19043;102393.2;;;;-67
2023/06/04 16:36:47;;;;;;;0.2;0.1;;;;;;;;;;;;;-68
2023/06/04 16:37:13;;;;;;;;;;;;;;;27.45;33.42969;102395.1;;;;-68
2023/06/04 16:42:14;;;;;;;;;;;;;;;27.15;33.9668;102394.5;;;;-67
2023/06/04 16:47:13;;;;;;;;;;;;;;;26.94;34.52246;102404.1;;;;-66
2023/06/04 16:52:13;;;;;;;;;;;;;;;26.63;34.39258;102402.9;;;;-67
2023/06/04 16:57:13;;;;;;;;;;;;;;;26.4;34.79395;102403;;;;-68
2023/06/04 17:02:14;;;;;;;;;;;;;;;26.08;34.8623;102393.4;;;;-66
2023/06/04 17:06:52;;;;;;;0.2;0;;;;;;;;;;;;;-67
2023/06/04 17:07:13;;;;;;;;;;;;;;;25.85;35.16992;102391.2;;;;-67
2023/06/04 17:12:13;;;;;;;;;;;;;;;25.69;35.42383;102402;;;;-67
2023/06/04 17:17:13;;;;;;;;;;;;;;;25.43;35.65918;102394.8;;;;-68
2023/06/04 17:22:13;;;;;;;;;;;;;;;25.17;35.91602;102398.9;;;;-66
2023/06/04 17:27:13;;;;;;;;;;;;;;;24.95;36.21191;102392.2;;;;-66
2023/06/04 17:32:14;;;;;;;;;;;;;;;24.75;36.53027;102391.6;;;;-70
2023/06/04 17:36:59;;;;;;;0.2;0.1;;;;;;;;;;;;;-69
2023/06/04 17:37:14;;;;;;;;;;;;;;;24.43;36.8291;102394.1;;;;-71
2023/06/04 17:42:14;;;;;;;;;;;;;;;24.16;36.96875;102400.1;;;;-70
2023/06/04 17:47:14;;;;;;;;;;;;;;;23.94;37.50391;102399.4;;;;-70
2023/06/04 17:52:13;;;;;;;;;;;;;;;23.77;37.91797;102409.8;;;;-71
2023/06/04 17:57:13;;;;;;;;;;;;;;;23.56;37.4043;102404.2;;;;-71
2023/06/04 18:02:14;;;;;;;;;;;;;;;23.33;38.1582;102408.1;;;;-68
2023/06/04 18:07:00;;;;;;;0.2;0;;;;;;;;;;;;;-68
2023/06/04 18:07:14;;;;;;;;;;;;;;;22.99;38.75098;102413.5;;;;-69
2023/06/04 18:12:14;;;;;;;;;;;;;;;22.87;39.16699;102413.7;;;;-69
2023/06/04 18:17:14;;;;;;;;;;;;;;;22.72;39.5332;102416.1;;;;-67
2023/06/04 18:22:13;;;;;;;;;;;;;;;22.61;39.44336;102417;;;;-68
2023/06/04 18:27:13;;;;;;;;;;;;;;;22.49;38.90332;102425.1;;;;-70
2023/06/04 18:32:13;;;;;;;;;;;;;;;22.24;39.28418;102420.1;;;;-68
2023/06/04 18:37:04;;;;;;;0.2;0.1;;;;;;;;;;;;;-69
2023/06/04 18:37:14;;;;;;;;;;;;;;;22.16;39.08105;102421.6;;;;-68
2023/06/04 18:42:14;;;;;;;;;;;;;;;21.95;38.75293;102428.6;;;;-68
2023/06/04 18:47:14;;;;;;;;;;;;;;;21.74;39.74512;102429;;;;-68
2023/06/04 18:52:13;;;;;;;;;;;;;;;21.55;39.56836;102433.4;;;;-68
2023/06/04 18:57:16;;;;;;;;;;;;;;;21.29;39.37305;102430.7;;;;-69
2023/06/04 19:02:13;;;;;;;;;;;;;;;21.04;39.32715;102427.1;;;;-70
2023/06/04 19:07:08;;;;;;;0.2;0;;;;;;;;;;;;;-68
2023/06/04 19:07:19;;;;;;;;;;;;;;;20.78;39.95801;102421.7;;;;-68
2023/06/04 19:12:13;;;;;;;;;;;;;;;20.5;40.15039;102426.2;;;;-68
2023/06/04 19:17:20;;;;;;;;;;;;;;;20.25;40.7002;102427.7;;;;-69
2023/06/04 19:22:14;;;;;;;;;;;;;;;20.01;41.20508;102433.1;;;;-70
2023/06/04 19:27:15;;;;;;;;;;;;;;;19.73;41.17871;102438;;;;-68
2023/06/04 19:32:14;;;;;;;;;;;;;;;19.48;41.34961;102445.7;;;;-70
2023/06/04 19:37:11;;;;;;;0.2;0.1;;;;;;;;;;;;;-68
2023/06/04 19:37:21;;;;;;;;;;;;;;;19.23;41.65723;102445.6;;;;-69
2023/06/04 19:42:13;;;;;;;;;;;;;;;19.01;42.06934;102447.3;;;;-70
2023/06/04 19:47:14;;;;;;;;;;;;;;;18.8;42.26758;102448.8;;;;-69
2023/06/04 19:52:15;;;;;;;;;;;;;;;18.6;42.54395;102454;;;;-68
2023/06/04 19:57:14;;;;;;;;;;;;;;;18.37;42.76074;102450.1;;;;-69
2023/06/04 20:02:13;;;;;;;;;;;;;;;18.21;43.15625;102452.1;;;;-69
2023/06/04 20:07:13;;;;;;;;;;;;;;;18.03;43.37793;102459.1;;;;-68
2023/06/04 20:07:25;;;;;;;0.4;0.2;;;;;;;;;;;;;-68
2023/06/04 20:12:16;;;;;;;;;;;;;;;17.84;43.34766;102464;;;;-69
2023/06/04 20:17:13;;;;;;;;;;;;;;;17.68;44.45703;102461.2;;;;-68
2023/06/04 20:22:13;;;;;;;;;;;;;;;17.48;44.10742;102470;;;;-68
2023/06/04 20:27:16;;;;;;;;;;;;;;;17.32;44.33105;102472.9;;;;-69
2023/06/04 20:32:14;;;;;;;;;;;;;;;17.21;44.18262;102476.4;;;;-68
2023/06/04 20:37:14;;;;;;;;;;;;;;;17.01;45.20703;102477.2;;;;-70
2023/06/04 20:37:23;;;;;;;0.2;0;;;;;;;;;;;;;-70
2023/06/04 20:42:14;;;;;;;;;;;;;;;16.87;45.24902;102477.7;;;;-68
2023/06/04 20:47:14;;;;;;;;;;;;;;;16.73;45.81348;102483.3;;;;-69
2023/06/04 20:52:14;;;;;;;;;;;;;;;16.61;45.58594;102495.2;;;;-69
2023/06/04 20:57:13;;;;;;;;;;;;;;;16.48;46.37598;102499.5;;;;-68
2023/06/04 21:02:14;;;;;;;;;;;;;;;16.35;46.46484;102509.1;;;;-68
2023/06/04 21:07:15;;;;;;;;;;;;;;;16.23;46.72363;102507.6;;;;-69
2023/06/04 21:07:24;;;;;;;0.3;0.1;;;;;;;;;;;;;-69
2023/06/04 21:12:14;;;;;;;;;;;;;;;16.14;47.08789;102508.3;;;;-69
2023/06/04 21:17:13;;;;;;;;;;;;;;;16.03;47.10938;102510.8;;;;-70
2023/06/04 21:22:14;;;;;;;;;;;;;;;15.92;47.49414;102517.3;;;;-69
2023/06/04 21:27:13;;;;;;;;;;;;;;;15.77;48.08789;102518.5;;;;-70
2023/06/04 21:32:13;;;;;;;;;;;;;;;15.65;48.14355;102516;;;;-68
2023/06/04 21:37:13;;;;;;;;;;;;;;;15.58;48.01074;102512.6;;;;-70
2023/06/04 21:37:25;;;;;;;0.2;0;;;;;;;;;;;;;-70
2023/06/04 21:42:14;;;;;;;;;;;;;;;15.46;48.48438;102518;;;;-70
2023/06/04 21:47:13;;;;;;;;;;;;;;;15.38;48.46484;102521.2;;;;-69
2023/06/04 21:52:14;;;;;;;;;;;;;;;15.3;48.27441;102523.7;;;;-68
2023/06/04 21:57:13;;;;;;;;;;;;;;;15.25;48.60742;102527.5;;;;-68
2023/06/04 22:02:14;;;;;;;;;;;;;;;15.09;48.95215;102522.7;;;;-69
2023/06/04 22:07:14;;;;;;;;;;;;;;;15.02;49.33887;102526.3;;;;-69
2023/06/04 22:07:24;;;;;;;0.2;0;;;;;;;;;;;;;-69
2023/06/04 22:12:14;;;;;;;;;;;;;;;14.95;49.64648;102521.7;;;;-68
2023/06/04 22:17:14;;;;;;;;;;;;;;;14.87;50.02051;102525.4;;;;-69
2023/06/04 22:22:14;;;;;;;;;;;;;;;14.8;50.44043;102527.6;;;;-69
2023/06/04 22:27:14;;;;;;;;;;;;;;;14.73;49.89258;102529.9;;;;-68
2023/06/04 22:32:13;;;;;;;;;;;;;;;14.68;50.22559;102539;;;;-67
2023/06/04 22:37:14;;;;;;;;;;;;;;;14.58;50.05469;102536.8;;;;-68
2023/06/04 22:37:25;;;;;;;0.2;0;;;;;;;;;;;;;-70
2023/06/04 22:42:13;;;;;;;;;;;;;;;14.52;50.48828;102527.5;;;;-69
2023/06/04 22:47:13;;;;;;;;;;;;;;;14.46;50.08691;102522.1;;;;-68
2023/06/04 22:52:14;;;;;;;;;;;;;;;14.38;50.49414;102521.7;;;;-69
2023/06/04 22:57:13;;;;;;;;;;;;;;;14.36;50.08789;102525.5;;;;-68
2023/06/04 23:02:14;;;;;;;;;;;;;;;14.24;50.36523;102523.4;;;;-71
2023/06/04 23:07:14;;;;;;;;;;;;;;;14.17;51.0791;102521.5;;;;-70
2023/06/04 23:07:27;;;;;;;0.2;0.1;;;;;;;;;;;;;-70
2023/06/04 23:12:14;;;;;;;;;;;;;;;14.08;50.87695;102519.8;;;;-69
2023/06/04 23:17:14;;;;;;;;;;;;;;;14.07;51.11133;102530.5;;;;-69
2023/06/04 23:22:13;;;;;;;;;;;;;;;13.98;51.05566;102531.5;;;;-68
2023/06/04 23:27:13;;;;;;;;;;;;;;;13.92;51.38672;102527.2;;;;-67
2023/06/04 23:32:13;;;;;;;;;;;;;;;13.88;51.1123;102533.3;;;;-68
2023/06/04 23:37:13;;;;;;;;;;;;;;;13.82;51.50977;102536.6;;;;-68
2023/06/04 23:37:29;;;;;;;0.2;0;;;;;;;;;;;;;-67
2023/06/04 23:42:13;;;;;;;;;;;;;;;13.81;51.6543;102530.3;;;;-69
2023/06/04 23:47:14;;;;;;;;;;;;;;;13.71;51.43945;102536.4;;;;-67
2023/06/04 23:52:14;;;;;;;;;;;;;;;13.7;51.41602;102541.3;;;;-68
2023/06/04 23:57:13;;;;;;;;;;;;;;;13.64;51.52344;102537.1;;;;-68
